sensor_id;sensor_type;location;lat;lon;timestamp;P1;durP1;ratioP1;P2;durP2;ratioP2
77838;SDS011;67034;43.226;27.932;2023-05-17T00:01:02;8.55;;;4.47;;
77838;SDS011;67034;43.226;27.932;2023-05-17T00:03:28;11.35;;;4.82;;
77838;SDS011;67034;43.226;27.932;2023-05-17T00:05:54;7.35;;;4.25;;
77838;SDS011;67034;43.226;27.932;2023-05-17T00:08:21;8.77;;;4.53;;
77838;SDS011;67034;43.226;27.932;2023-05-17T00:10:47;15.55;;;5.72;;
77838;SDS011;67034;43.226;27.932;2023-05-17T00:13:12;7.68;;;4.45;;
77838;SDS011;67034;43.226;27.932;2023-05-17T00:15:38;8.20;;;4.57;;
77838;SDS011;67034;43.226;27.932;2023-05-17T00:18:04;8.13;;;4.43;;
77838;SDS011;67034;43.226;27.932;2023-05-17T00:20:30;9.15;;;4.50;;
77838;SDS011;67034;43.226;27.932;2023-05-17T00:22:55;5.38;;;3.60;;
77838;SDS011;67034;43.226;27.932;2023-05-17T00:25:23;10.52;;;3.95;;
77838;SDS011;67034;43.226;27.932;2023-05-17T00:27:48;6.70;;;4.32;;
77838;SDS011;67034;43.226;27.932;2023-05-17T00:30:14;6.40;;;3.97;;
77838;SDS011;67034;43.226;27.932;2023-05-17T00:32:40;5.75;;;3.97;;
77838;SDS011;67034;43.226;27.932;2023-05-17T00:35:06;7.75;;;4.05;;
77838;SDS011;67034;43.226;27.932;2023-05-17T00:37:32;6.22;;;4.30;;
77838;SDS011;67034;43.226;27.932;2023-05-17T00:39:57;9.82;;;4.40;;
77838;SDS011;67034;43.226;27.932;2023-05-17T00:42:24;9.52;;;5.13;;
77838;SDS011;67034;43.226;27.932;2023-05-17T00:44:50;9.07;;;4.28;;
77838;SDS011;67034;43.226;27.932;2023-05-17T00:47:16;8.52;;;4.00;;
77838;SDS011;67034;43.226;27.932;2023-05-17T00:49:41;10.05;;;3.92;;
77838;SDS011;67034;43.226;27.932;2023-05-17T00:52:08;6.57;;;3.92;;
77838;SDS011;67034;43.226;27.932;2023-05-17T00:54:34;9.55;;;4.38;;
77838;SDS011;67034;43.226;27.932;2023-05-17T00:57:00;11.13;;;4.40;;
77838;SDS011;67034;43.226;27.932;2023-05-17T00:59:27;7.07;;;3.58;;
77838;SDS011;67034;43.226;27.932;2023-05-17T01:01:53;9.27;;;4.28;;
77838;SDS011;67034;43.226;27.932;2023-05-17T01:04:20;6.70;;;3.85;;
77838;SDS011;67034;43.226;27.932;2023-05-17T01:06:46;6.95;;;3.97;;
77838;SDS011;67034;43.226;27.932;2023-05-17T01:09:11;8.80;;;3.90;;
77838;SDS011;67034;43.226;27.932;2023-05-17T01:11:38;10.45;;;4.25;;
77838;SDS011;67034;43.226;27.932;2023-05-17T01:14:13;9.73;;;3.95;;
77838;SDS011;67034;43.226;27.932;2023-05-17T01:16:55;5.55;;;3.70;;
77838;SDS011;67034;43.226;27.932;2023-05-17T01:22:14;8.27;;;4.00;;
77838;SDS011;67034;43.226;27.932;2023-05-17T01:24:54;6.85;;;3.78;;
77838;SDS011;67034;43.226;27.932;2023-05-17T01:27:38;6.82;;;4.00;;
77838;SDS011;67034;43.226;27.932;2023-05-17T01:30:07;5.03;;;3.20;;
77838;SDS011;67034;43.226;27.932;2023-05-17T01:32:36;4.53;;;3.20;;
77838;SDS011;67034;43.226;27.932;2023-05-17T01:35:04;7.00;;;3.70;;
77838;SDS011;67034;43.226;27.932;2023-05-17T01:37:31;7.07;;;3.53;;
77838;SDS011;67034;43.226;27.932;2023-05-17T01:39:56;8.73;;;3.35;;
77838;SDS011;67034;43.226;27.932;2023-05-17T01:42:22;6.93;;;3.25;;
77838;SDS011;67034;43.226;27.932;2023-05-17T01:44:58;7.95;;;3.92;;
77838;SDS011;67034;43.226;27.932;2023-05-17T01:47:28;7.35;;;3.88;;
77838;SDS011;67034;43.226;27.932;2023-05-17T01:50:00;7.93;;;3.35;;
77838;SDS011;67034;43.226;27.932;2023-05-17T01:52:31;9.52;;;3.80;;
77838;SDS011;67034;43.226;27.932;2023-05-17T01:55:04;5.70;;;3.42;;
77838;SDS011;67034;43.226;27.932;2023-05-17T01:57:35;9.43;;;4.22;;
77838;SDS011;67034;43.226;27.932;2023-05-17T02:00:04;6.28;;;3.50;;
77838;SDS011;67034;43.226;27.932;2023-05-17T02:02:33;7.82;;;3.47;;
77838;SDS011;67034;43.226;27.932;2023-05-17T02:05:00;6.05;;;2.80;;
77838;SDS011;67034;43.226;27.932;2023-05-17T02:07:25;10.30;;;3.38;;
77838;SDS011;67034;43.226;27.932;2023-05-17T02:09:51;5.00;;;3.47;;
77838;SDS011;67034;43.226;27.932;2023-05-17T02:12:17;8.45;;;3.20;;
77838;SDS011;67034;43.226;27.932;2023-05-17T02:14:42;6.97;;;3.30;;
77838;SDS011;67034;43.226;27.932;2023-05-17T02:17:09;5.63;;;2.97;;
77838;SDS011;67034;43.226;27.932;2023-05-17T02:19:35;5.88;;;3.20;;
77838;SDS011;67034;43.226;27.932;2023-05-17T02:22:01;8.23;;;3.40;;
77838;SDS011;67034;43.226;27.932;2023-05-17T02:24:26;6.10;;;3.20;;
77838;SDS011;67034;43.226;27.932;2023-05-17T02:26:52;8.23;;;3.40;;
77838;SDS011;67034;43.226;27.932;2023-05-17T02:29:18;7.78;;;3.38;;
77838;SDS011;67034;43.226;27.932;2023-05-17T02:31:44;7.78;;;3.65;;
77838;SDS011;67034;43.226;27.932;2023-05-17T02:34:11;7.40;;;2.90;;
77838;SDS011;67034;43.226;27.932;2023-05-17T02:36:37;7.95;;;3.10;;
77838;SDS011;67034;43.226;27.932;2023-05-17T02:39:04;10.30;;;3.28;;
77838;SDS011;67034;43.226;27.932;2023-05-17T02:41:30;8.35;;;3.67;;
77838;SDS011;67034;43.226;27.932;2023-05-17T02:43:55;10.55;;;3.42;;
77838;SDS011;67034;43.226;27.932;2023-05-17T02:46:21;7.18;;;3.00;;
77838;SDS011;67034;43.226;27.932;2023-05-17T02:48:47;6.32;;;2.85;;
77838;SDS011;67034;43.226;27.932;2023-05-17T02:51:14;9.23;;;3.00;;
77838;SDS011;67034;43.226;27.932;2023-05-17T02:53:39;5.47;;;2.80;;
77838;SDS011;67034;43.226;27.932;2023-05-17T02:56:05;5.95;;;3.03;;
77838;SDS011;67034;43.226;27.932;2023-05-17T02:58:31;5.95;;;2.72;;
77838;SDS011;67034;43.226;27.932;2023-05-17T03:00:57;6.97;;;3.03;;
77838;SDS011;67034;43.226;27.932;2023-05-17T03:03:23;6.78;;;3.17;;
77838;SDS011;67034;43.226;27.932;2023-05-17T03:05:48;10.63;;;3.80;;
77838;SDS011;67034;43.226;27.932;2023-05-17T03:08:15;5.82;;;2.92;;
77838;SDS011;67034;43.226;27.932;2023-05-17T03:10:41;5.00;;;2.90;;
77838;SDS011;67034;43.226;27.932;2023-05-17T03:13:07;4.90;;;2.75;;
77838;SDS011;67034;43.226;27.932;2023-05-17T03:15:32;6.32;;;2.97;;
77838;SDS011;67034;43.226;27.932;2023-05-17T03:17:58;5.70;;;2.60;;
77838;SDS011;67034;43.226;27.932;2023-05-17T03:20:24;6.85;;;3.22;;
77838;SDS011;67034;43.226;27.932;2023-05-17T03:22:50;5.20;;;2.90;;
77838;SDS011;67034;43.226;27.932;2023-05-17T03:25:17;8.70;;;3.28;;
77838;SDS011;67034;43.226;27.932;2023-05-17T03:27:43;8.27;;;3.25;;
77838;SDS011;67034;43.226;27.932;2023-05-17T03:30:08;5.15;;;3.05;;
77838;SDS011;67034;43.226;27.932;2023-05-17T03:32:36;5.88;;;3.10;;
77838;SDS011;67034;43.226;27.932;2023-05-17T03:35:03;8.38;;;2.97;;
77838;SDS011;67034;43.226;27.932;2023-05-17T03:37:29;6.65;;;2.72;;
77838;SDS011;67034;43.226;27.932;2023-05-17T03:39:55;4.53;;;2.83;;
77838;SDS011;67034;43.226;27.932;2023-05-17T03:42:22;4.60;;;2.67;;
77838;SDS011;67034;43.226;27.932;2023-05-17T03:44:47;6.15;;;3.25;;
77838;SDS011;67034;43.226;27.932;2023-05-17T03:47:13;8.85;;;3.00;;
77838;SDS011;67034;43.226;27.932;2023-05-17T03:49:39;7.28;;;3.08;;
77838;SDS011;67034;43.226;27.932;2023-05-17T03:52:05;5.93;;;2.88;;
77838;SDS011;67034;43.226;27.932;2023-05-17T03:54:31;7.07;;;2.80;;
77838;SDS011;67034;43.226;27.932;2023-05-17T03:56:57;7.75;;;2.70;;
77838;SDS011;67034;43.226;27.932;2023-05-17T03:59:24;9.27;;;3.10;;
77838;SDS011;67034;43.226;27.932;2023-05-17T04:01:50;6.55;;;2.80;;
77838;SDS011;67034;43.226;27.932;2023-05-17T04:04:15;9.00;;;2.92;;
77838;SDS011;67034;43.226;27.932;2023-05-17T04:06:41;7.60;;;3.17;;
77838;SDS011;67034;43.226;27.932;2023-05-17T04:09:07;5.18;;;3.25;;
77838;SDS011;67034;43.226;27.932;2023-05-17T04:11:35;9.48;;;3.08;;
77838;SDS011;67034;43.226;27.932;2023-05-17T04:14:02;5.10;;;2.70;;
77838;SDS011;67034;43.226;27.932;2023-05-17T04:16:30;8.85;;;3.83;;
77838;SDS011;67034;43.226;27.932;2023-05-17T04:18:56;7.90;;;4.30;;
77838;SDS011;67034;43.226;27.932;2023-05-17T04:21:24;11.98;;;3.45;;
77838;SDS011;67034;43.226;27.932;2023-05-17T04:23:50;9.90;;;3.50;;
77838;SDS011;67034;43.226;27.932;2023-05-17T04:26:15;12.10;;;3.40;;
77838;SDS011;67034;43.226;27.932;2023-05-17T04:28:41;8.85;;;3.25;;
77838;SDS011;67034;43.226;27.932;2023-05-17T04:31:07;11.77;;;4.25;;
77838;SDS011;67034;43.226;27.932;2023-05-17T04:33:34;7.28;;;3.15;;
77838;SDS011;67034;43.226;27.932;2023-05-17T04:36:01;5.97;;;2.75;;
77838;SDS011;67034;43.226;27.932;2023-05-17T04:38:28;8.35;;;2.90;;
77838;SDS011;67034;43.226;27.932;2023-05-17T04:40:55;7.72;;;3.17;;
77838;SDS011;67034;43.226;27.932;2023-05-17T04:45:54;5.22;;;3.00;;
77838;SDS011;67034;43.226;27.932;2023-05-17T04:48:21;5.45;;;2.72;;
77838;SDS011;67034;43.226;27.932;2023-05-17T04:50:48;7.70;;;3.10;;
77838;SDS011;67034;43.226;27.932;2023-05-17T04:53:14;4.47;;;2.63;;
77838;SDS011;67034;43.226;27.932;2023-05-17T04:55:40;8.77;;;3.47;;
77838;SDS011;67034;43.226;27.932;2023-05-17T04:58:05;9.40;;;3.17;;
77838;SDS011;67034;43.226;27.932;2023-05-17T05:00:33;6.90;;;3.00;;
77838;SDS011;67034;43.226;27.932;2023-05-17T05:03:00;7.93;;;3.50;;
77838;SDS011;67034;43.226;27.932;2023-05-17T05:05:26;8.85;;;2.88;;
77838;SDS011;67034;43.226;27.932;2023-05-17T05:07:53;10.93;;;3.70;;
77838;SDS011;67034;43.226;27.932;2023-05-17T05:10:18;6.93;;;3.60;;
77838;SDS011;67034;43.226;27.932;2023-05-17T05:12:44;5.40;;;3.40;;
77838;SDS011;67034;43.226;27.932;2023-05-17T05:15:10;7.57;;;3.03;;
77838;SDS011;67034;43.226;27.932;2023-05-17T05:17:36;5.53;;;2.92;;
77838;SDS011;67034;43.226;27.932;2023-05-17T05:20:02;7.95;;;3.08;;
77838;SDS011;67034;43.226;27.932;2023-05-17T05:22:28;6.93;;;3.00;;
77838;SDS011;67034;43.226;27.932;2023-05-17T05:24:56;9.75;;;3.92;;
77838;SDS011;67034;43.226;27.932;2023-05-17T05:27:21;6.50;;;3.00;;
77838;SDS011;67034;43.226;27.932;2023-05-17T05:29:47;6.78;;;3.20;;
77838;SDS011;67034;43.226;27.932;2023-05-17T05:32:13;10.15;;;2.67;;
77838;SDS011;67034;43.226;27.932;2023-05-17T05:34:40;5.63;;;2.92;;
77838;SDS011;67034;43.226;27.932;2023-05-17T05:37:05;8.00;;;2.83;;
77838;SDS011;67034;43.226;27.932;2023-05-17T05:39:31;9.63;;;3.38;;
77838;SDS011;67034;43.226;27.932;2023-05-17T05:41:58;7.30;;;3.00;;
77838;SDS011;67034;43.226;27.932;2023-05-17T05:44:24;5.18;;;3.05;;
77838;SDS011;67034;43.226;27.932;2023-05-17T05:46:50;10.25;;;4.05;;
77838;SDS011;67034;43.226;27.932;2023-05-17T05:49:15;4.85;;;2.70;;
77838;SDS011;67034;43.226;27.932;2023-05-17T05:51:41;6.25;;;3.35;;
77838;SDS011;67034;43.226;27.932;2023-05-17T05:54:07;8.60;;;3.20;;
77838;SDS011;67034;43.226;27.932;2023-05-17T05:56:33;9.57;;;3.13;;
77838;SDS011;67034;43.226;27.932;2023-05-17T05:59:00;6.30;;;2.97;;
77838;SDS011;67034;43.226;27.932;2023-05-17T06:01:26;7.55;;;3.10;;
77838;SDS011;67034;43.226;27.932;2023-05-17T06:03:52;5.35;;;3.17;;
77838;SDS011;67034;43.226;27.932;2023-05-17T06:06:18;8.93;;;4.53;;
77838;SDS011;67034;43.226;27.932;2023-05-17T06:08:44;6.55;;;3.50;;
77838;SDS011;67034;43.226;27.932;2023-05-17T06:11:11;4.45;;;2.88;;
77838;SDS011;67034;43.226;27.932;2023-05-17T06:13:37;7.38;;;2.80;;
77838;SDS011;67034;43.226;27.932;2023-05-17T06:16:07;8.90;;;3.30;;
77838;SDS011;67034;43.226;27.932;2023-05-17T06:18:32;6.20;;;3.35;;
77838;SDS011;67034;43.226;27.932;2023-05-17T06:20:58;5.90;;;3.13;;
77838;SDS011;67034;43.226;27.932;2023-05-17T06:23:24;6.07;;;2.90;;
77838;SDS011;67034;43.226;27.932;2023-05-17T06:25:50;8.73;;;3.70;;
77838;SDS011;67034;43.226;27.932;2023-05-17T06:28:16;7.63;;;3.53;;
77838;SDS011;67034;43.226;27.932;2023-05-17T06:30:42;4.85;;;2.70;;
77838;SDS011;67034;43.226;27.932;2023-05-17T06:33:09;6.63;;;2.70;;
77838;SDS011;67034;43.226;27.932;2023-05-17T06:35:35;6.32;;;3.22;;
77838;SDS011;67034;43.226;27.932;2023-05-17T06:38:00;6.00;;;2.83;;
77838;SDS011;67034;43.226;27.932;2023-05-17T06:40:26;7.03;;;2.92;;
77838;SDS011;67034;43.226;27.932;2023-05-17T06:42:52;4.53;;;2.78;;
77838;SDS011;67034;43.226;27.932;2023-05-17T06:45:18;4.88;;;2.85;;
77838;SDS011;67034;43.226;27.932;2023-05-17T06:47:43;6.70;;;2.75;;
77838;SDS011;67034;43.226;27.932;2023-05-17T06:50:11;4.80;;;2.83;;
77838;SDS011;67034;43.226;27.932;2023-05-17T06:52:36;3.72;;;2.85;;
77838;SDS011;67034;43.226;27.932;2023-05-17T06:55:02;7.30;;;2.80;;
77838;SDS011;67034;43.226;27.932;2023-05-17T06:57:28;9.98;;;2.60;;
77838;SDS011;67034;43.226;27.932;2023-05-17T06:59:54;7.55;;;3.05;;
77838;SDS011;67034;43.226;27.932;2023-05-17T07:02:20;4.45;;;2.90;;
77838;SDS011;67034;43.226;27.932;2023-05-17T07:04:45;5.50;;;2.90;;
77838;SDS011;67034;43.226;27.932;2023-05-17T07:07:12;6.07;;;3.78;;
77838;SDS011;67034;43.226;27.932;2023-05-17T07:09:38;6.47;;;3.30;;
77838;SDS011;67034;43.226;27.932;2023-05-17T07:12:04;16.52;;;6.40;;
77838;SDS011;67034;43.226;27.932;2023-05-17T07:14:30;5.68;;;3.13;;
77838;SDS011;67034;43.226;27.932;2023-05-17T07:16:56;11.73;;;3.95;;
77838;SDS011;67034;43.226;27.932;2023-05-17T07:19:22;6.88;;;3.00;;
77838;SDS011;67034;43.226;27.932;2023-05-17T07:21:50;6.20;;;2.58;;
77838;SDS011;67034;43.226;27.932;2023-05-17T07:24:17;5.47;;;2.53;;
77838;SDS011;67034;43.226;27.932;2023-05-17T07:26:43;6.65;;;2.60;;
77838;SDS011;67034;43.226;27.932;2023-05-17T07:29:10;5.37;;;2.53;;
77838;SDS011;67034;43.226;27.932;2023-05-17T07:31:36;4.95;;;2.30;;
77838;SDS011;67034;43.226;27.932;2023-05-17T07:34:02;4.40;;;2.65;;
77838;SDS011;67034;43.226;27.932;2023-05-17T07:36:27;5.47;;;2.40;;
77838;SDS011;67034;43.226;27.932;2023-05-17T07:38:54;5.07;;;2.70;;
77838;SDS011;67034;43.226;27.932;2023-05-17T07:41:21;4.72;;;2.67;;
77838;SDS011;67034;43.226;27.932;2023-05-17T07:43:47;8.02;;;2.80;;
77838;SDS011;67034;43.226;27.932;2023-05-17T07:46:14;6.47;;;2.90;;
77838;SDS011;67034;43.226;27.932;2023-05-17T07:48:40;18.58;;;3.38;;
77838;SDS011;67034;43.226;27.932;2023-05-17T07:51:05;4.57;;;2.60;;
77838;SDS011;67034;43.226;27.932;2023-05-17T07:53:31;8.90;;;2.60;;
77838;SDS011;67034;43.226;27.932;2023-05-17T07:55:57;8.60;;;2.80;;
77838;SDS011;67034;43.226;27.932;2023-05-17T07:58:24;5.65;;;3.10;;
77838;SDS011;67034;43.226;27.932;2023-05-17T08:00:49;5.28;;;3.58;;
77838;SDS011;67034;43.226;27.932;2023-05-17T08:03:15;7.75;;;3.17;;
77838;SDS011;67034;43.226;27.932;2023-05-17T08:05:41;4.57;;;2.30;;
77838;SDS011;67034;43.226;27.932;2023-05-17T08:08:06;7.50;;;2.58;;
77838;SDS011;67034;43.226;27.932;2023-05-17T08:10:32;6.38;;;3.33;;
77838;SDS011;67034;43.226;27.932;2023-05-17T08:13:00;4.25;;;2.33;;
77838;SDS011;67034;43.226;27.932;2023-05-17T08:15:27;5.03;;;2.58;;
77838;SDS011;67034;43.226;27.932;2023-05-17T08:17:53;4.72;;;2.42;;
77838;SDS011;67034;43.226;27.932;2023-05-17T08:20:19;6.03;;;2.58;;
77838;SDS011;67034;43.226;27.932;2023-05-17T08:22:45;6.60;;;2.67;;
77838;SDS011;67034;43.226;27.932;2023-05-17T08:25:11;8.60;;;3.10;;
77838;SDS011;67034;43.226;27.932;2023-05-17T08:27:36;5.95;;;2.97;;
77838;SDS011;67034;43.226;27.932;2023-05-17T08:30:02;5.80;;;2.50;;
77838;SDS011;67034;43.226;27.932;2023-05-17T08:32:30;7.43;;;3.20;;
77838;SDS011;67034;43.226;27.932;2023-05-17T08:34:56;4.90;;;2.78;;
77838;SDS011;67034;43.226;27.932;2023-05-17T08:37:22;7.18;;;2.95;;
77838;SDS011;67034;43.226;27.932;2023-05-17T08:39:48;5.93;;;2.95;;
77838;SDS011;67034;43.226;27.932;2023-05-17T08:42:15;6.70;;;3.17;;
77838;SDS011;67034;43.226;27.932;2023-05-17T08:44:45;10.65;;;3.30;;
77838;SDS011;67034;43.226;27.932;2023-05-17T08:47:12;4.47;;;2.55;;
77838;SDS011;67034;43.226;27.932;2023-05-17T08:49:53;13.40;;;3.00;;
77838;SDS011;67034;43.226;27.932;2023-05-17T08:52:20;12.88;;;3.50;;
77838;SDS011;67034;43.226;27.932;2023-05-17T08:54:46;6.85;;;3.10;;
77838;SDS011;67034;43.226;27.932;2023-05-17T08:57:12;7.15;;;3.42;;
77838;SDS011;67034;43.226;27.932;2023-05-17T08:59:41;7.50;;;3.63;;
77838;SDS011;67034;43.226;27.932;2023-05-17T09:02:08;7.72;;;3.15;;
77838;SDS011;67034;43.226;27.932;2023-05-17T09:04:34;9.10;;;3.70;;
77838;SDS011;67034;43.226;27.932;2023-05-17T09:07:03;7.43;;;3.67;;
77838;SDS011;67034;43.226;27.932;2023-05-17T09:09:29;7.55;;;4.35;;
77838;SDS011;67034;43.226;27.932;2023-05-17T09:11:55;6.97;;;3.95;;
77838;SDS011;67034;43.226;27.932;2023-05-17T09:14:23;7.45;;;3.08;;
77838;SDS011;67034;43.226;27.932;2023-05-17T09:16:50;6.88;;;4.30;;
77838;SDS011;67034;43.226;27.932;2023-05-17T09:19:21;10.05;;;4.10;;
77838;SDS011;67034;43.226;27.932;2023-05-17T09:21:47;6.28;;;3.92;;
77838;SDS011;67034;43.226;27.932;2023-05-17T09:24:14;8.18;;;3.65;;
77838;SDS011;67034;43.226;27.932;2023-05-17T09:26:43;4.43;;;2.93;;
77838;SDS011;67034;43.226;27.932;2023-05-17T09:29:10;8.15;;;3.33;;
77838;SDS011;67034;43.226;27.932;2023-05-17T09:31:37;7.57;;;3.65;;
77838;SDS011;67034;43.226;27.932;2023-05-17T09:34:03;7.30;;;4.22;;
77838;SDS011;67034;43.226;27.932;2023-05-17T09:36:31;4.43;;;2.90;;
77838;SDS011;67034;43.226;27.932;2023-05-17T09:38:57;6.53;;;3.38;;
77838;SDS011;67034;43.226;27.932;2023-05-17T09:41:26;5.72;;;3.35;;
77838;SDS011;67034;43.226;27.932;2023-05-17T09:43:53;6.72;;;3.67;;
77838;SDS011;67034;43.226;27.932;2023-05-17T09:46:22;5.32;;;3.28;;
77838;SDS011;67034;43.226;27.932;2023-05-17T09:48:51;7.95;;;3.70;;
77838;SDS011;67034;43.226;27.932;2023-05-17T09:51:18;6.65;;;3.50;;
77838;SDS011;67034;43.226;27.932;2023-05-17T09:53:43;8.38;;;4.00;;
77838;SDS011;67034;43.226;27.932;2023-05-17T09:56:09;10.48;;;3.85;;
77838;SDS011;67034;43.226;27.932;2023-05-17T09:58:36;4.38;;;3.50;;
77838;SDS011;67034;43.226;27.932;2023-05-17T10:01:03;12.52;;;5.57;;
77838;SDS011;67034;43.226;27.932;2023-05-17T10:03:31;8.32;;;4.63;;
77838;SDS011;67034;43.226;27.932;2023-05-17T10:05:58;8.20;;;4.10;;
77838;SDS011;67034;43.226;27.932;2023-05-17T10:08:25;11.00;;;4.82;;
77838;SDS011;67034;43.226;27.932;2023-05-17T10:10:54;5.88;;;3.25;;
77838;SDS011;67034;43.226;27.932;2023-05-17T10:13:23;9.30;;;3.72;;
77838;SDS011;67034;43.226;27.932;2023-05-17T10:15:55;7.25;;;3.10;;
77838;SDS011;67034;43.226;27.932;2023-05-17T10:18:22;7.20;;;3.40;;
77838;SDS011;67034;43.226;27.932;2023-05-17T10:20:48;9.07;;;3.65;;
77838;SDS011;67034;43.226;27.932;2023-05-17T10:23:15;6.65;;;3.33;;
77838;SDS011;67034;43.226;27.932;2023-05-17T10:25:42;8.35;;;3.03;;
77838;SDS011;67034;43.226;27.932;2023-05-17T10:28:09;6.03;;;2.95;;
77838;SDS011;67034;43.226;27.932;2023-05-17T10:30:35;6.32;;;3.22;;
77838;SDS011;67034;43.226;27.932;2023-05-17T10:33:04;6.82;;;3.05;;
77838;SDS011;67034;43.226;27.932;2023-05-17T10:35:30;3.78;;;2.65;;
77838;SDS011;67034;43.226;27.932;2023-05-17T10:38:03;6.60;;;3.35;;
77838;SDS011;67034;43.226;27.932;2023-05-17T10:40:29;11.55;;;3.50;;
77838;SDS011;67034;43.226;27.932;2023-05-17T10:42:56;7.55;;;3.53;;
77838;SDS011;67034;43.226;27.932;2023-05-17T10:45:23;8.98;;;3.20;;
77838;SDS011;67034;43.226;27.932;2023-05-17T10:47:51;5.35;;;3.08;;
77838;SDS011;67034;43.226;27.932;2023-05-17T10:50:21;7.10;;;2.70;;
77838;SDS011;67034;43.226;27.932;2023-05-17T10:52:48;6.53;;;2.60;;
77838;SDS011;67034;43.226;27.932;2023-05-17T10:55:18;7.15;;;2.50;;
77838;SDS011;67034;43.226;27.932;2023-05-17T10:57:45;6.93;;;3.20;;
77838;SDS011;67034;43.226;27.932;2023-05-17T11:00:32;7.10;;;2.80;;
77838;SDS011;67034;43.226;27.932;2023-05-17T11:03:09;5.47;;;2.90;;
77838;SDS011;67034;43.226;27.932;2023-05-17T11:05:39;9.60;;;2.97;;
77838;SDS011;67034;43.226;27.932;2023-05-17T11:08:13;5.63;;;2.75;;
77838;SDS011;67034;43.226;27.932;2023-05-17T11:13:42;7.45;;;3.15;;
77838;SDS011;67034;43.226;27.932;2023-05-17T11:16:13;7.23;;;3.30;;
77838;SDS011;67034;43.226;27.932;2023-05-17T11:18:46;7.80;;;3.40;;
77838;SDS011;67034;43.226;27.932;2023-05-17T11:21:14;5.50;;;3.03;;
77838;SDS011;67034;43.226;27.932;2023-05-17T11:23:41;7.13;;;3.60;;
77838;SDS011;67034;43.226;27.932;2023-05-17T11:26:11;10.45;;;3.30;;
77838;SDS011;67034;43.226;27.932;2023-05-17T11:28:42;8.10;;;3.35;;
77838;SDS011;67034;43.226;27.932;2023-05-17T11:31:08;5.45;;;3.53;;
77838;SDS011;67034;43.226;27.932;2023-05-17T11:33:37;7.43;;;2.55;;
77838;SDS011;67034;43.226;27.932;2023-05-17T11:36:14;5.22;;;2.80;;
77838;SDS011;67034;43.226;27.932;2023-05-17T11:38:46;7.57;;;3.60;;
77838;SDS011;67034;43.226;27.932;2023-05-17T11:41:17;4.45;;;2.95;;
77838;SDS011;67034;43.226;27.932;2023-05-17T11:43:44;11.75;;;3.58;;
77838;SDS011;67034;43.226;27.932;2023-05-17T11:46:17;6.32;;;3.10;;
77838;SDS011;67034;43.226;27.932;2023-05-17T11:48:44;6.43;;;3.72;;
77838;SDS011;67034;43.226;27.932;2023-05-17T11:51:11;8.52;;;4.03;;
77838;SDS011;67034;43.226;27.932;2023-05-17T11:53:41;9.05;;;3.72;;
77838;SDS011;67034;43.226;27.932;2023-05-17T11:56:08;8.05;;;3.95;;
77838;SDS011;67034;43.226;27.932;2023-05-17T11:58:35;5.60;;;3.70;;
77838;SDS011;67034;43.226;27.932;2023-05-17T12:01:01;8.57;;;3.20;;
77838;SDS011;67034;43.226;27.932;2023-05-17T12:03:28;8.93;;;4.07;;
77838;SDS011;67034;43.226;27.932;2023-05-17T12:06:03;6.07;;;3.65;;
77838;SDS011;67034;43.226;27.932;2023-05-17T12:08:31;7.30;;;3.92;;
77838;SDS011;67034;43.226;27.932;2023-05-17T12:10:59;5.93;;;3.90;;
77838;SDS011;67034;43.226;27.932;2023-05-17T12:13:26;5.65;;;3.60;;
77838;SDS011;67034;43.226;27.932;2023-05-17T12:15:53;10.30;;;4.80;;
77838;SDS011;67034;43.226;27.932;2023-05-17T12:18:21;9.48;;;4.60;;
77838;SDS011;67034;43.226;27.932;2023-05-17T12:20:56;8.93;;;4.45;;
77838;SDS011;67034;43.226;27.932;2023-05-17T12:23:29;10.93;;;4.82;;
77838;SDS011;67034;43.226;27.932;2023-05-17T12:26:05;20.70;;;5.70;;
77838;SDS011;67034;43.226;27.932;2023-05-17T12:28:32;8.98;;;5.13;;
77838;SDS011;67034;43.226;27.932;2023-05-17T12:30:58;11.43;;;4.57;;
77838;SDS011;67034;43.226;27.932;2023-05-17T12:33:28;11.80;;;5.25;;
77838;SDS011;67034;43.226;27.932;2023-05-17T12:35:56;10.18;;;4.05;;
77838;SDS011;67034;43.226;27.932;2023-05-17T12:38:22;8.45;;;4.25;;
77838;SDS011;67034;43.226;27.932;2023-05-17T12:40:50;6.63;;;4.50;;
77838;SDS011;67034;43.226;27.932;2023-05-17T12:43:17;10.60;;;4.57;;
77838;SDS011;67034;43.226;27.932;2023-05-17T12:45:44;7.25;;;4.43;;
77838;SDS011;67034;43.226;27.932;2023-05-17T12:48:11;6.55;;;4.10;;
77838;SDS011;67034;43.226;27.932;2023-05-17T12:50:37;9.50;;;4.50;;
77838;SDS011;67034;43.226;27.932;2023-05-17T12:53:09;6.50;;;3.97;;
77838;SDS011;67034;43.226;27.932;2023-05-17T12:55:35;6.15;;;3.72;;
77838;SDS011;67034;43.226;27.932;2023-05-17T12:58:01;5.60;;;3.42;;
77838;SDS011;67034;43.226;27.932;2023-05-17T13:00:30;8.40;;;3.92;;
77838;SDS011;67034;43.226;27.932;2023-05-17T13:02:55;9.20;;;4.00;;
77838;SDS011;67034;43.226;27.932;2023-05-17T13:05:21;6.88;;;4.13;;
77838;SDS011;67034;43.226;27.932;2023-05-17T13:07:47;10.02;;;4.15;;
77838;SDS011;67034;43.226;27.932;2023-05-17T13:10:20;7.10;;;3.83;;
77838;SDS011;67034;43.226;27.932;2023-05-17T13:12:54;5.93;;;4.03;;
77838;SDS011;67034;43.226;27.932;2023-05-17T13:15:25;6.15;;;3.63;;
77838;SDS011;67034;43.226;27.932;2023-05-17T13:17:53;5.90;;;4.03;;
77838;SDS011;67034;43.226;27.932;2023-05-17T13:20:19;9.93;;;4.13;;
77838;SDS011;67034;43.226;27.932;2023-05-17T13:22:46;7.93;;;3.83;;
77838;SDS011;67034;43.226;27.932;2023-05-17T13:25:12;8.50;;;4.07;;
77838;SDS011;67034;43.226;27.932;2023-05-17T13:27:38;8.35;;;4.30;;
77838;SDS011;67034;43.226;27.932;2023-05-17T13:30:09;8.10;;;3.90;;
77838;SDS011;67034;43.226;27.932;2023-05-17T13:32:35;8.25;;;4.13;;
77838;SDS011;67034;43.226;27.932;2023-05-17T13:35:03;7.65;;;4.20;;
77838;SDS011;67034;43.226;27.932;2023-05-17T13:37:29;5.93;;;3.60;;
77838;SDS011;67034;43.226;27.932;2023-05-17T13:39:55;8.68;;;3.63;;
77838;SDS011;67034;43.226;27.932;2023-05-17T13:42:21;12.13;;;5.13;;
77838;SDS011;67034;43.226;27.932;2023-05-17T13:44:47;8.68;;;4.38;;
77838;SDS011;67034;43.226;27.932;2023-05-17T13:47:13;14.77;;;4.63;;
77838;SDS011;67034;43.226;27.932;2023-05-17T13:49:39;7.18;;;3.92;;
77838;SDS011;67034;43.226;27.932;2023-05-17T13:52:07;9.85;;;4.40;;
77838;SDS011;67034;43.226;27.932;2023-05-17T13:54:33;10.38;;;4.53;;
77838;SDS011;67034;43.226;27.932;2023-05-17T13:57:03;10.57;;;4.32;;
77838;SDS011;67034;43.226;27.932;2023-05-17T13:59:29;8.65;;;4.55;;
77838;SDS011;67034;43.226;27.932;2023-05-17T14:01:56;6.45;;;4.10;;
77838;SDS011;67034;43.226;27.932;2023-05-17T14:04:22;9.73;;;4.30;;
77838;SDS011;67034;43.226;27.932;2023-05-17T14:06:47;5.38;;;4.00;;
77838;SDS011;67034;43.226;27.932;2023-05-17T14:09:15;9.30;;;4.20;;
77838;SDS011;67034;43.226;27.932;2023-05-17T14:11:40;9.30;;;4.28;;
77838;SDS011;67034;43.226;27.932;2023-05-17T14:14:06;6.50;;;4.37;;
77838;SDS011;67034;43.226;27.932;2023-05-17T14:16:32;9.43;;;3.90;;
77838;SDS011;67034;43.226;27.932;2023-05-17T14:18:58;11.35;;;4.75;;
77838;SDS011;67034;43.226;27.932;2023-05-17T14:21:24;5.32;;;3.78;;
77838;SDS011;67034;43.226;27.932;2023-05-17T14:23:50;4.97;;;3.70;;
77838;SDS011;67034;43.226;27.932;2023-05-17T14:26:20;6.78;;;4.15;;
77838;SDS011;67034;43.226;27.932;2023-05-17T14:28:46;7.82;;;4.30;;
77838;SDS011;67034;43.226;27.932;2023-05-17T14:31:12;8.63;;;3.85;;
77838;SDS011;67034;43.226;27.932;2023-05-17T14:33:38;11.70;;;4.47;;
77838;SDS011;67034;43.226;27.932;2023-05-17T14:36:04;6.05;;;4.20;;
77838;SDS011;67034;43.226;27.932;2023-05-17T14:38:30;10.98;;;4.50;;
77838;SDS011;67034;43.226;27.932;2023-05-17T14:40:56;8.40;;;4.07;;